KHUM/HUM METAR and TAF weather

Enter ICAO airport designator
Station Type Date Time Source
KHUM METAR 2022/01/23 12:47 UTC NOAA

KHUM 231247Z 02004KT 7SM CLR M04/M06 A3031


Station Type Date Time Source
KHUM Decoded METAR 2022/01/23 12:47 UTC NOAA

Houma-Terrebonne, LA, United States (KHUM) 29-34N 090-40W
Jan 23, 2022 - 07:47 AM EST / 2022.01.23 1247 UTC
Wind: from the NNE (020 degrees) at 5 MPH (4 KT):0
Visibility: 7 mile(s):0
Sky conditions: clear
Temperature: 24 F (-4 C)
Windchill: 17 F (-8 C):1
Dew Point: 21 F (-6 C)
Relative Humidity: 85%
Pressure (altimeter): 30.31 in. Hg (1026 hPa)
ob: KHUM 231247Z 02004KT 7SM CLR M04/M06 A3031
cycle: 13

Station Type Date Time Source
KHUM TAF 2022/01/23 12:22 UTC NOAA

TAF KHUM 231120Z 2312/2412 00000KT P6SM SKC
FM232100 32006KT P6SM FEW250

Example: see airport list